Terminal Aerodrome Forecast
Issued by NWS Jacksonville, FL

Home | Current Version | Previous Version | Text Only | Print | Product List | Glossary On
Versions: 1 2 3 4 5 6 7 8 9 10 11 12 13 14 15
000
FTUS42 KJAX 281747
TAFGNV
TAF
KGNV 281747Z 2818/2918 25007KT P6SM VCTS SCT030CB BKN070 OVC200
      TEMPO 2818/2822 VRB15G30KT 3SM +TSRA BR BKN025CB OVC070
     FM282300 21004KT 5SM SHRA BR VCTS BKN025CB BKN070 OVC120
     FM290100 18003KT P6SM VCSH SCT020 BKN120 OVC250=

USA.gov is the U.S. government's official web portal to all federal, state and local government web resources and services.